Aérodrome :
LOGIN :

S'inscrire | Disclaimer

   EN    FR    IT 

 










Légende :    VFR   VFR Marginal   IFR   IFR Intensif   IFR Très Intensif
Visi : 
Plafond : 
>= 8 km
>= 3000ft
5 à 8 km
1000 à 3000 ft
1500m à 5 km
500 à 1000 ft
800 à 1500m
200 à 500 ft
< 800m
< 200 ft
Symboles :   Orages  Brouillard  Fortes neiges  Fortes précipitations  Vent > 20 kt
SIGMETs :   Divers  Orages  Givrage  Turbulence  Onde Orograph.  Cendres Volcan.







- Altitude de l'aérodrome : 313 ft
- Code IATA : LEH
- Voir les cartes d'approche


LFOH - Le Havre Octeville

DERNIER METAR :
  • 242300Z AUTO 00000KT 0300 R22/0400N FG VV/// 11/10 Q1018

METARs EXPIRÉS :
  • 242230Z AUTO VRB02KT 0300 R22/0400N FG VV/// 11/10 Q1017
  • 242200Z AUTO VRB02KT 4300 BR NSC 12/11 Q1017
  • 242130Z AUTO 01004KT 4000 BR NSC 12/11 Q1017
  • 242100Z AUTO 00000KT 5000 BR NSC 12/11 Q1018
  • 242030Z AUTO 01003KT 5000 BR NSC 13/11 Q1018

TAF AMD TAF LFOH
Valide du 24 à 15h jusqu'au 25 à 12h UTC


241501Z 2415/2512 02010KT 3000 BR BKN002
PROB30
TEMPO 2415/2417 TSRA BKN002 BKN040CB
PROB40 2500/2508 0200 FG VV///
BECMG 2508/2511 6000 NSW SCT015
ATIS : +33 2 35 54 64 93
Pas de NOTAMs connus pour ce terrain.



MET'MAP, la Météo Aéronautique d'un coup d'oeil ! - Copyright ORBIFLY Décembre 2007 - Disclaimer

ORBIFLY MET'MAP TEAM :

Programmation & Développement : Alexandra Zaïnal
Conception & Développement : Baudouin d'Aumeries
Co-Programmation & Développement : Marc-Olivier Méhu
Soutien technique & logistique : Manuel Goepfert

Contact : metmap@orbifly.com




SOURCES & CREDITS :

   NOAA